Time;durP1;ratioP1;P1;durP2;ratioP2;P2;SDS_P1;SDS_P2;PMS_P1;PMS_P2;Temp;Humidity;BMP_temperature;BMP_pressure;BME280_temperature;BME280_humidity;BME280_pressure;Samples;Min_cycle;Max_cycle;Signal;HPM_P1;HPM_P2
2022/11/28 00:00:26;;;;;;;;;9.75;7.50;;;;;11.46;72.67;100603.59;2097352;28;46254;-63
2022/11/28 00:01:32;;;;;;;;;12.50;11.50;;;;;11.47;72.83;100604.47;2096783;28;46939;-64
2022/11/28 00:02:32;;;;;;;;;8.60;8.60;;;;;11.46;72.89;100592.97;2093789;28;46877;-63
2022/11/28 00:03:32;;;;;;;;;7.75;7.75;;;;;11.47;72.75;100592.06;2096990;28;46407;-62
2022/11/28 00:04:33;;;;;;;;;8.25;8.25;;;;;11.48;72.84;100598.25;2096056;28;46366;-64
2022/11/28 00:05:36;;;;;;;;;11.75;10.75;;;;;11.47;72.92;100584.09;2095509;28;46177;-63
2022/11/28 00:06:45;;;;;;;;;9.00;8.00;;;;;11.49;72.80;100584.03;2096227;28;47049;-63
2022/11/28 00:07:45;;;;;;;;;9.00;8.00;;;;;11.51;72.83;100579.53;2097529;28;46850;-64
2022/11/28 00:08:45;;;;;;;;;9.00;8.00;;;;;11.51;73.02;100579.53;2097498;28;46894;-63
2022/11/28 00:09:46;;;;;;;;;9.25;9.00;;;;;11.54;72.66;100575.94;2094575;28;46697;-61
2022/11/28 00:10:46;;;;;;;;;8.50;8.50;;;;;11.54;72.78;100571.47;2097274;28;46287;-64
2022/11/28 00:11:47;;;;;;;;;9.25;8.00;;;;;11.56;73.02;100574.09;2097272;28;46586;-65
2022/11/28 00:12:48;;;;;;;;;7.80;7.00;;;;;11.58;72.90;100580.25;2097056;28;46958;-63
2022/11/28 00:13:48;;;;;;;;;9.25;9.00;;;;;11.57;72.93;100563.44;2097551;28;46308;-63
2022/11/28 00:14:48;;;;;;;;;7.75;7.75;;;;;11.58;72.71;100561.66;2097186;28;46550;-63
2022/11/28 00:16:01;;;;;;;;;8.00;8.00;;;;;11.59;72.82;100564.28;2097044;28;46662;-63
2022/11/28 00:17:01;;;;;;;;;8.00;8.00;;;;;11.60;72.57;100560.69;2097474;28;46348;-61
2022/11/28 00:18:01;;;;;;;;;8.75;7.75;;;;;11.60;72.62;100559.81;2097209;28;46675;-63
2022/11/28 00:19:05;;;;;;;;;4.25;2.00;;;;;11.60;72.53;100554.50;2096799;28;46508;-63
2022/11/28 00:20:06;;;;;;;;;8.80;7.00;;;;;11.59;72.25;100550.97;2097533;28;46339;-63
2022/11/28 00:21:09;;;;;;;;;9.40;9.00;;;;;11.61;72.48;100553.59;2087585;28;46669;-63
2022/11/28 00:22:10;;;;;;;;;9.20;9.20;;;;;11.60;72.47;100544.75;2088123;28;46742;-62
2022/11/28 00:23:10;;;;;;;;;9.50;7.50;;;;;11.59;72.41;100544.78;2097263;28;47014;-61
2022/11/28 00:24:10;;;;;;;;;9.00;9.00;;;;;11.58;72.33;100548.38;2098064;28;46475;-63
2022/11/28 00:25:11;;;;;;;;;9.50;8.50;;;;;11.59;72.53;100552.78;2103221;27;46126;-62
2022/11/28 00:26:26;;;;;;;;;9.00;9.00;;;;;11.57;72.33;100549.28;2097414;28;46534;-63
2022/11/28 00:27:26;;;;;;;;;9.40;8.60;;;;;11.56;72.44;100556.38;2096826;28;46345;-63
2022/11/28 00:28:27;;;;;;;;;9.50;7.75;;;;;11.56;72.44;100555.50;2097412;28;46485;-61
2022/11/28 00:29:27;;;;;;;;;8.75;8.75;;;;;11.55;72.55;100553.75;2097243;28;46206;-62
2022/11/28 00:30:28;;;;;;;;;14.00;9.00;;;;;11.53;72.38;100551.13;2097187;28;46778;-62
2022/11/28 00:31:42;;;;;;;;;3.50;3.00;;;;;11.53;72.64;100552.94;2097393;28;46955;-62
2022/11/28 00:32:42;;;;;;;;;8.00;8.00;;;;;11.52;72.56;100545.88;2096017;28;46701;-63
2022/11/28 00:33:43;;;;;;;;;9.75;9.75;;;;;11.51;72.43;100545.00;2097009;28;46082;-63
2022/11/28 00:34:43;;;;;;;;;10.25;9.25;;;;;11.49;72.57;100544.19;2097477;28;46467;-60
2022/11/28 00:35:43;;;;;;;;;10.25;9.25;;;;;11.49;72.68;100545.03;2096842;28;46264;-62
2022/11/28 00:36:46;;;;;;;;;7.25;7.25;;;;;11.47;72.67;100533.59;2097224;28;46267;-61
2022/11/28 00:37:46;;;;;;;;;9.00;8.60;;;;;11.45;72.61;100540.75;2097467;28;45156;-63
2022/11/28 00:38:47;;;;;;;;;10.00;10.00;;;;;11.45;73.05;100542.53;2097251;28;46217;-63
2022/11/28 00:39:47;;;;;;;;;7.75;7.75;;;;;11.45;72.95;100534.56;2097191;28;46539;-62
2022/11/28 00:40:48;;;;;;;;;8.25;7.75;;;;;11.45;72.99;100534.56;2097140;28;46438;-63
2022/11/28 00:41:48;;;;;;;;;9.50;9.50;;;;;11.45;72.79;100534.56;2099298;28;45848;-63
2022/11/28 00:42:48;;;;;;;;;9.00;8.00;;;;;11.46;72.98;100530.97;2096866;28;46205;-63
2022/11/28 00:43:50;;;;;;;;;6.75;6.75;;;;;11.44;72.79;100531.03;2096254;28;46884;-63
2022/11/28 00:44:50;;;;;;;;;10.00;8.00;;;;;11.44;72.76;100535.47;2097187;28;46797;-63
2022/11/28 00:45:51;;;;;;;;;7.00;7.00;;;;;11.43;72.78;100531.94;2097080;28;46581;-63
2022/11/28 00:46:51;;;;;;;;;8.25;7.25;;;;;11.42;72.78;100535.50;2097194;28;46197;-63
2022/11/28 00:47:51;;;;;;;;;9.00;9.00;;;;;11.41;72.86;100532.88;2097107;28;46904;-64
2022/11/28 00:48:52;;;;;;;;;9.50;9.50;;;;;11.40;72.90;100532.00;2096657;28;46557;-63
2022/11/28 00:49:52;;;;;;;;;12.80;11.00;;;;;11.40;73.15;100528.47;2096695;28;45720;-62
2022/11/28 00:50:54;;;;;;;;;8.25;7.75;;;;;11.39;73.15;100532.06;2097256;28;46704;-63
2022/11/28 00:51:54;;;;;;;;;8.40;8.40;;;;;11.39;73.31;100530.28;2097047;28;46430;-63
2022/11/28 00:52:54;;;;;;;;;8.25;8.00;;;;;11.39;73.00;100530.28;2097029;28;46232;-63
2022/11/28 00:53:59;;;;;;;;;10.00;9.00;;;;;11.40;73.25;100533.78;2097688;28;46416;-63
2022/11/28 00:54:59;;;;;;;;;9.40;8.00;;;;;11.40;73.48;100525.81;2096916;28;46449;-64
2022/11/28 00:56:02;;;;;;;;;8.00;7.25;;;;;11.39;73.64;100529.41;2096932;28;46078;-63
2022/11/28 00:57:02;;;;;;;;;7.00;7.00;;;;;11.42;73.70;100529.31;2092682;28;46592;-64
2022/11/28 00:58:03;;;;;;;;;8.50;8.50;;;;;11.42;73.43;100530.19;2096969;28;47001;-62
2022/11/28 00:59:04;;;;;;;;;8.50;8.25;;;;;11.43;73.00;100534.59;2103680;28;46305;-62
2022/11/28 01:00:06;;;;;;;;;7.80;7.80;;;;;11.44;73.33;100532.81;2096915;28;46747;-62
2022/11/28 01:01:12;;;;;;;;;8.60;7.60;;;;;11.46;73.65;100534.50;2096283;28;46106;-63
2022/11/28 01:02:13;;;;;;;;;9.20;8.40;;;;;11.47;73.39;100532.72;2096647;28;46287;-62
2022/11/28 01:03:13;;;;;;;;;7.25;7.00;;;;;11.47;73.66;100535.38;2096351;28;46572;-60
2022/11/28 01:04:16;;;;;;;;;8.75;8.75;;;;;11.48;73.42;100535.34;2096072;28;46786;-64
2022/11/28 01:05:16;;;;;;;;;6.20;6.00;;;;;11.49;73.44;100534.41;2096942;28;46263;-63
2022/11/28 01:06:22;;;;;;;;;9.00;8.50;;;;;11.50;73.35;100537.94;2096947;28;46699;-62
2022/11/28 01:07:22;;;;;;;;;8.40;8.40;;;;;11.50;73.44;100535.28;2096933;28;46745;-62
2022/11/28 01:08:22;;;;;;;;;7.50;7.50;;;;;11.52;73.51;100532.59;2096539;28;46404;-64
2022/11/28 01:09:23;;;;;;;;;9.25;8.50;;;;;11.54;73.60;100533.41;2095572;28;46475;-62
2022/11/28 01:10:24;;;;;;;;;10.00;9.50;;;;;11.55;73.37;100527.16;2097023;28;46836;-64
2022/11/28 01:11:24;;;;;;;;;9.00;9.00;;;;;11.57;73.62;100533.34;2096904;28;46627;-63
2022/11/28 01:12:24;;;;;;;;;8.75;7.75;;;;;11.57;73.39;100528.91;2097089;28;46227;-62
2022/11/28 01:13:25;;;;;;;;;9.25;9.25;;;;;11.59;73.35;100532.38;2096766;28;45092;-63
2022/11/28 01:14:26;;;;;;;;;9.50;9.50;;;;;11.59;73.45;100523.53;2096932;28;46712;-63
2022/11/28 01:15:26;;;;;;;;;10.50;9.50;;;;;11.60;73.35;100523.47;2097383;28;46353;-63
2022/11/28 01:16:27;;;;;;;;;8.50;8.50;;;;;11.62;73.63;100528.75;2097091;28;46159;-64
2022/11/28 01:17:28;;;;;;;;;11.00;10.40;;;;;11.63;73.33;100535.81;2096870;28;46933;-64
2022/11/28 01:18:28;;;;;;;;;6.67;6.67;;;;;11.65;73.48;100536.63;2096878;28;46460;-63
2022/11/28 01:19:28;;;;;;;;;11.00;10.25;;;;;11.66;73.13;100539.25;2096735;28;46121;-62
2022/11/28 01:20:29;;;;;;;;;9.00;9.00;;;;;11.66;73.38;100533.91;2097225;28;46066;-63
2022/11/28 01:21:29;;;;;;;;;8.75;8.75;;;;;11.68;73.89;100534.75;2096797;28;46647;-62
2022/11/28 01:22:29;;;;;;;;;10.25;10.25;;;;;11.71;73.45;100536.47;2096816;28;46679;-62
2022/11/28 01:23:30;;;;;;;;;8.00;7.50;;;;;11.71;73.47;100540.00;2096812;28;46323;-62
2022/11/28 01:24:30;;;;;;;;;10.00;9.50;;;;;11.73;73.38;100542.59;2096942;28;46793;-63
2022/11/28 01:25:31;;;;;;;;;9.50;9.50;;;;;11.73;73.36;100527.53;2096976;28;45990;-63
2022/11/28 01:26:31;;;;;;;;;10.00;9.00;;;;;11.73;73.51;100530.19;2097167;28;46433;-63
2022/11/28 01:27:31;;;;;;;;;9.75;7.75;;;;;11.75;73.40;100530.13;2096724;28;46206;-62
2022/11/28 01:28:33;;;;;;;;;8.50;8.50;;;;;11.76;73.58;100529.22;2097089;28;46274;-62
2022/11/28 01:29:33;;;;;;;;;10.60;10.60;;;;;11.77;73.57;100533.63;2096006;28;46562;-63
2022/11/28 01:30:33;;;;;;;;;9.75;9.25;;;;;11.79;73.45;100534.47;2096403;28;45227;-62
2022/11/28 01:31:34;;;;;;;;;8.50;7.75;;;;;11.79;73.35;100534.47;2096895;28;46743;-64
2022/11/28 01:32:34;;;;;;;;;8.00;8.00;;;;;11.79;73.32;100531.81;2097149;28;46298;-64
2022/11/28 01:33:34;;;;;;;;;9.25;8.00;;;;;11.78;73.42;100530.03;2096794;28;46146;-62
2022/11/28 01:34:35;;;;;;;;;7.50;7.50;;;;;11.79;73.29;100537.13;2096786;28;46685;-62
2022/11/28 01:35:35;;;;;;;;;9.25;9.25;;;;;11.79;73.30;100540.66;2096936;28;46297;-62
2022/11/28 01:36:35;;;;;;;;;10.00;10.00;;;;;11.79;73.33;100537.13;2096879;28;46799;-63
2022/11/28 01:37:36;;;;;;;;;9.25;9.25;;;;;11.79;73.35;100537.13;2096578;28;46317;-63
2022/11/28 01:38:36;;;;;;;;;7.00;7.00;;;;;11.80;73.25;100538.88;2096894;28;45926;-63
2022/11/28 01:39:36;;;;;;;;;9.00;7.00;;;;;11.81;73.19;100545.06;2097161;28;45127;-62
2022/11/28 01:40:44;;;;;;;;;10.50;10.25;;;;;11.82;73.26;100536.19;2096313;28;46310;-63
2022/11/28 01:41:45;;;;;;;;;9.00;9.00;;;;;11.82;73.42;100542.38;2093958;28;46566;-62
2022/11/28 01:42:45;;;;;;;;;8.50;8.50;;;;;11.84;73.30;100542.34;2096630;28;46592;-62
2022/11/28 01:44:28;;;;;;;;;8.50;7.25;;;;;11.84;73.21;100545.84;2096841;28;46497;-63
2022/11/28 01:45:32;;;;;;;;;7.80;7.00;;;;;11.86;73.36;100543.16;2096763;28;46938;-64
2022/11/28 01:46:34;;;;;;;;;7.60;7.60;;;;;11.85;73.36;100544.94;2096658;28;46645;-64
2022/11/28 01:47:34;;;;;;;;;10.00;10.00;;;;;11.87;73.29;100548.41;2096741;28;46246;-63
2022/11/28 01:48:41;;;;;;;;;7.67;7.67;;;;;11.89;73.28;100551.03;2096663;28;46339;-64
2022/11/28 01:49:43;;;;;;;;;8.60;8.60;;;;;11.90;73.11;100555.44;2098087;28;47883;-63
2022/11/28 01:50:46;;;;;;;;;9.20;8.00;;;;;11.91;73.17;100552.72;2096376;28;46599;-63
2022/11/28 01:51:53;;;;;;;;;8.00;8.00;;;;;11.90;73.03;100550.97;2096958;28;46749;-64
2022/11/28 01:52:58;;;;;;;;;8.20;7.40;;;;;11.91;73.21;100554.50;2096470;28;46374;-63
2022/11/28 01:54:00;;;;;;;;;9.60;9.60;;;;;11.91;73.02;100555.38;2096201;28;46657;-63
2022/11/28 01:55:02;;;;;;;;;5.25;5.25;;;;;11.91;73.04;100555.38;2096022;28;46340;-63
2022/11/28 01:56:16;;;;;;;;;8.20;8.20;;;;;11.93;73.01;100558.00;2097073;28;46505;-63
2022/11/28 01:57:20;;;;;;;;;8.00;8.00;;;;;11.93;72.94;100563.31;2094121;28;46818;-64
2022/11/28 01:58:22;;;;;;;;;9.80;9.80;;;;;11.93;72.96;100560.66;2096800;28;46857;-63
2022/11/28 01:59:26;;;;;;;;;10.80;10.80;;;;;11.93;73.16;100561.50;2096594;28;46570;-63
2022/11/28 02:00:26;;;;;;;;;10.40;10.20;;;;;11.92;73.09;100558.91;2096518;28;45873;-64
2022/11/28 02:01:27;;;;;;;;;9.00;9.00;;;;;11.93;73.09;100558.00;2096639;28;46362;-63
2022/11/28 02:02:39;;;;;;;;;10.00;9.25;;;;;11.93;72.92;100556.19;2096765;28;46031;-64
2022/11/28 02:03:44;;;;;;;;;10.40;9.00;;;;;11.93;72.98;100558.84;2096303;28;46842;-63
2022/11/28 02:04:45;;;;;;;;;7.60;7.60;;;;;11.93;73.06;100561.50;2096101;28;46962;-63
2022/11/28 02:05:48;;;;;;;;;10.00;8.67;;;;;11.93;72.90;100558.84;2096524;28;46546;-62
2022/11/28 02:06:49;;;;;;;;;9.00;8.75;;;;;11.95;73.10;100561.50;2096967;28;45635;-64
2022/11/28 02:07:51;;;;;;;;;11.50;11.00;;;;;11.95;73.13;100558.84;2078129;28;46762;-63
2022/11/28 02:08:52;;;;;;;;;8.00;8.00;;;;;11.96;73.33;100563.25;2079053;28;47149;-63
2022/11/28 02:09:53;;;;;;;;;8.00;8.00;;;;;11.96;72.95;100569.44;2096296;28;46464;-64
2022/11/28 02:10:57;;;;;;;;;9.00;9.00;;;;;11.97;73.23;100565.84;2096576;28;46548;-60
2022/11/28 02:12:10;;;;;;;;;8.50;7.75;;;;;11.97;73.22;100568.50;2089693;28;46642;-63
2022/11/28 02:13:34;;;;;;;;;7.20;6.00;;;;;11.98;73.02;100564.06;2096202;28;46554;-63
2022/11/28 02:15:00;;;;;;;;;9.60;7.80;;;;;11.97;73.13;100565.84;2091800;28;46165;-63
2022/11/28 02:16:10;;;;;;;;;9.20;9.00;;;;;11.98;73.19;100567.59;2096359;28;46541;-64
2022/11/28 02:17:28;;;;;;;;;9.00;9.00;;;;;11.98;73.14;100566.72;2096717;28;47034;-62
2022/11/28 02:18:37;;;;;;;;;11.40;10.80;;;;;11.98;73.31;100569.38;2095613;28;47249;-63
2022/11/28 02:20:06;;;;;;;;;7.60;7.60;;;;;12.00;73.25;100567.53;2096558;28;47014;-65
2022/11/28 02:21:31;;;;;;;;;10.00;10.00;;;;;12.00;73.10;100563.09;2092593;28;46673;-63
2022/11/28 02:22:50;;;;;;;;;10.20;10.20;;;;;12.02;73.14;100563.03;2090958;28;46596;-63
2022/11/28 02:24:20;;;;;;;;;9.00;9.00;;;;;12.02;73.21;100558.59;2096381;28;46569;-63
2022/11/28 02:25:49;;;;;;;;;8.60;8.60;;;;;12.05;73.33;100560.28;2093929;28;46569;-64
2022/11/28 02:27:16;;;;;;;;;11.20;9.40;;;;;12.04;73.04;100551.44;2072295;28;46682;-63
2022/11/28 02:28:45;;;;;;;;;8.80;8.80;;;;;12.05;73.09;100554.97;2070513;28;46809;-63
2022/11/28 02:29:57;;;;;;;;;9.80;8.20;;;;;12.05;73.08;100547.84;2062256;28;46393;-62
2022/11/28 02:31:09;;;;;;;;;8.60;8.60;;;;;12.06;73.19;100551.38;2063898;28;46617;-62
2022/11/28 02:32:15;;;;;;;;;10.60;10.00;;;;;12.06;73.10;100551.38;2070240;28;46856;-64
2022/11/28 02:33:28;;;;;;;;;10.60;9.60;;;;;12.05;73.22;100546.97;2070761;28;46306;-63
2022/11/28 02:34:39;;;;;;;;;8.80;8.80;;;;;12.06;73.16;100554.03;2070328;28;46876;-63
2022/11/28 02:35:48;;;;;;;;;8.20;6.60;;;;;12.05;73.14;100546.97;2070690;28;46355;-63
2022/11/28 02:36:55;;;;;;;;;8.60;8.60;;;;;12.05;73.20;100542.53;2070419;28;47093;-63
2022/11/28 02:38:09;;;;;;;;;10.60;9.40;;;;;12.06;73.16;100538.09;2070679;28;46846;-63
2022/11/28 02:39:21;;;;;;;;;8.80;8.40;;;;;12.06;73.18;100541.63;2070651;28;45694;-63
2022/11/28 02:40:34;;;;;;;;;9.60;9.60;;;;;12.07;72.83;100542.50;2070083;28;46444;-62
2022/11/28 02:41:40;;;;;;;;;10.40;10.40;;;;;12.06;73.12;100541.63;2070572;28;46321;-63
2022/11/28 02:43:02;;;;;;;;;10.00;10.00;;;;;12.07;73.14;100538.06;2071715;28;46363;-63
2022/11/28 02:44:16;;;;;;;;;10.20;10.20;;;;;12.07;73.13;100543.38;2071914;28;46261;-65
2022/11/28 02:45:28;;;;;;;;;10.00;10.00;;;;;12.08;73.12;100545.13;2070310;28;46441;-63
2022/11/28 02:46:51;;;;;;;;;7.00;6.20;;;;;12.08;73.26;100544.25;2068393;28;46829;-61
2022/11/28 02:48:01;;;;;;;;;9.00;9.00;;;;;12.10;73.14;100538.88;2070710;28;46873;-63
2022/11/28 02:49:05;;;;;;;;;11.00;10.00;;;;;12.09;73.21;100546.00;2066803;28;46768;-62
2022/11/28 02:50:11;;;;;;;;;10.00;10.00;;;;;12.09;72.73;100535.34;2071015;28;46750;-63
2022/11/28 02:51:22;;;;;;;;;9.20;7.80;;;;;12.10;73.42;100541.53;2070417;28;46751;-63
2022/11/28 02:52:28;;;;;;;;;7.80;7.60;;;;;12.10;73.22;100531.78;2068203;28;46561;-64
2022/11/28 02:53:32;;;;;;;;;12.00;10.00;;;;;12.11;73.20;100537.97;2070288;28;46340;-63
2022/11/28 02:54:34;;;;;;;;;11.80;10.60;;;;;12.11;73.59;100530.84;2070554;28;46872;-62
2022/11/28 02:55:41;;;;;;;;;11.60;11.60;;;;;12.12;73.27;100529.06;2070192;28;46510;-63
2022/11/28 02:56:49;;;;;;;;;10.20;9.20;;;;;12.11;73.14;100509.56;2071311;28;46845;-63
2022/11/28 02:57:52;;;;;;;;;12.20;8.80;;;;;12.12;73.17;100513.97;2063421;28;46753;-63
2022/11/28 02:58:53;;;;;;;;;10.00;9.60;;;;;12.12;73.31;100513.97;2066356;28;46384;-63
2022/11/28 02:59:54;;;;;;;;;10.50;10.50;;;;;12.13;73.41;100514.84;2067310;28;47090;-64
2022/11/28 03:00:55;;;;;;;;;10.40;10.40;;;;;12.12;73.14;100503.31;2072941;28;46377;-64
2022/11/28 03:01:56;;;;;;;;;11.80;10.00;;;;;12.13;73.45;100505.06;2063236;28;47313;-64
2022/11/28 03:03:15;;;;;;;;;10.50;9.75;;;;;12.13;73.37;100509.53;2062274;28;46243;-61
2022/11/28 03:04:27;;;;;;;;;8.00;8.00;;;;;12.15;73.23;100511.22;2068826;28;46820;-63
2022/11/28 03:05:59;;;;;;;;;8.00;8.00;;;;;12.13;73.38;100507.72;2096296;28;46811;-63
2022/11/28 03:07:20;;;;;;;;;12.80;12.40;;;;;12.13;73.33;100510.38;2095260;28;46728;-63
2022/11/28 03:08:32;;;;;;;;;9.20;8.00;;;;;12.13;73.29;100509.53;2096084;28;46717;-63
2022/11/28 03:09:46;;;;;;;;;12.40;10.00;;;;;12.13;73.39;100515.72;2093524;28;46556;-63
2022/11/28 03:11:00;;;;;;;;;11.00;11.00;;;;;12.13;73.49;100499.75;2096542;28;46871;-64
2022/11/28 03:12:30;;;;;;;;;11.00;10.00;;;;;12.14;73.33;100503.28;2094959;28;46318;-62
2022/11/28 03:13:40;;;;;;;;;9.20;9.00;;;;;12.13;73.41;100506.88;2095727;28;46423;-63
2022/11/28 03:14:56;;;;;;;;;10.00;10.00;;;;;12.12;73.29;100500.66;2096949;28;46736;-63
2022/11/28 03:16:26;;;;;;;;;10.40;10.40;;;;;12.11;73.24;100495.41;2095980;28;47248;-62
2022/11/28 03:17:53;;;;;;;;;9.00;9.00;;;;;12.09;73.27;100498.13;2096287;28;46642;-64
2022/11/28 03:19:06;;;;;;;;;13.40;11.60;;;;;12.08;73.34;100499.03;2094627;28;46776;-61
2022/11/28 03:20:23;;;;;;;;;9.40;9.40;;;;;12.09;73.46;100495.47;2095505;28;46674;-64
2022/11/28 03:21:39;;;;;;;;;11.20;10.40;;;;;12.08;73.58;100496.38;2096087;28;46439;-62
2022/11/28 03:22:49;;;;;;;;;10.20;9.60;;;;;12.06;73.33;100496.41;2096085;28;46457;-63
2022/11/28 03:24:00;;;;;;;;;12.40;12.00;;;;;12.04;73.37;100498.25;2096121;28;46447;-61
2022/11/28 03:25:33;;;;;;;;;11.80;11.80;;;;;12.06;73.61;100499.06;2086575;28;46672;-62
2022/11/28 03:26:42;;;;;;;;;10.00;9.00;;;;;12.06;73.58;100506.16;2085930;28;46325;-62
2022/11/28 03:27:50;;;;;;;;;15.60;13.40;;;;;12.05;73.41;100505.28;2090915;28;46494;-63
2022/11/28 03:29:05;;;;;;;;;13.80;12.80;;;;;12.03;73.41;100509.78;2096090;28;46711;-63
2022/11/28 03:30:29;;;;;;;;;13.00;12.20;;;;;12.03;73.50;100515.13;2088574;28;46614;-63
2022/11/28 03:31:36;;;;;;;;;14.20;12.40;;;;;12.03;73.40;100507.13;2099981;28;45966;-63
2022/11/28 03:32:39;;;;;;;;;13.00;13.00;;;;;12.02;73.52;100513.38;2097177;27;46687;-63
2022/11/28 03:33:46;;;;;;;;;15.60;15.60;;;;;12.02;73.55;100515.16;2097679;28;46601;-63
2022/11/28 03:34:53;;;;;;;;;14.80;14.80;;;;;12.01;73.41;100508.97;2089183;28;46449;-63
2022/11/28 03:36:08;;;;;;;;;13.60;13.60;;;;;12.01;73.52;100511.63;2096148;28;47220;-64
2022/11/28 03:37:20;;;;;;;;;14.80;14.80;;;;;12.01;73.54;100516.09;2097545;28;45902;-60
2022/11/28 03:38:33;;;;;;;;;15.00;15.00;;;;;12.00;73.45;100517.88;2097679;28;46608;-63
2022/11/28 03:39:39;;;;;;;;;11.40;10.40;;;;;12.00;73.56;100514.34;2097757;28;46579;-62
2022/11/28 03:40:44;;;;;;;;;13.00;11.40;;;;;12.00;73.66;100515.22;2094830;28;46607;-64
2022/11/28 03:42:08;;;;;;;;;11.80;11.80;;;;;12.00;73.50;100519.66;2097503;28;46855;-62
2022/11/28 03:43:15;;;;;;;;;13.20;13.20;;;;;11.97;73.71;100520.63;2089091;28;46566;-61
2022/11/28 03:44:22;;;;;;;;;12.40;12.00;;;;;11.97;73.80;100523.28;2096976;28;46547;-62
2022/11/28 03:45:27;;;;;;;;;11.40;11.00;;;;;11.97;73.75;100520.63;2097153;28;46916;-63
2022/11/28 03:46:35;;;;;;;;;12.50;11.25;;;;;11.97;73.74;100520.63;2097833;28;46474;-62
2022/11/28 03:47:43;;;;;;;;;12.60;11.60;;;;;11.97;73.86;100519.78;2094091;28;47066;-63
2022/11/28 03:48:52;;;;;;;;;9.80;9.80;;;;;11.97;73.58;100520.63;2096782;28;48745;-63
2022/11/28 03:49:55;;;;;;;;;13.20;10.80;;;;;11.97;73.65;100515.31;2097180;28;46589;-62
2022/11/28 03:51:05;;;;;;;;;13.40;11.40;;;;;11.97;73.96;100520.63;2097019;28;46410;-62
2022/11/28 03:52:13;;;;;;;;;13.20;12.20;;;;;11.97;73.86;100522.44;2097473;28;45179;-62
2022/11/28 03:53:21;;;;;;;;;12.20;12.20;;;;;11.97;73.89;100522.44;2089142;28;46466;-62
2022/11/28 03:54:35;;;;;;;;;12.20;10.00;;;;;11.96;73.84;100513.59;2093963;28;46798;-62
2022/11/28 03:55:47;;;;;;;;;7.40;7.40;;;;;11.97;73.91;100506.47;2097248;28;46929;-62
2022/11/28 03:57:14;;;;;;;;;8.40;8.40;;;;;11.97;73.77;100510.00;2097797;28;46550;-63
2022/11/28 03:58:23;;;;;;;;;9.50;9.50;;;;;11.99;73.85;100504.63;2097815;28;46797;-63
2022/11/28 03:59:34;;;;;;;;;11.20;11.20;;;;;12.00;73.63;100507.25;2097156;28;46729;-62
2022/11/28 04:00:47;;;;;;;;;12.50;11.25;;;;;12.00;73.65;100509.03;2097163;28;46754;-62
2022/11/28 04:02:17;;;;;;;;;9.60;9.60;;;;;11.98;73.72;100502.91;2093215;28;47063;-63
2022/11/28 04:03:52;;;;;;;;;11.00;10.80;;;;;11.97;73.78;100506.47;2097459;28;46885;-63
2022/11/28 04:04:58;;;;;;;;;16.00;12.60;;;;;11.95;73.85;100500.34;2097200;28;46589;-63
2022/11/28 04:06:07;;;;;;;;;12.00;12.00;;;;;11.94;73.80;100499.47;2099217;28;46801;-63
2022/11/28 04:07:23;;;;;;;;;12.40;12.40;;;;;11.94;74.29;100493.25;2097669;28;46459;-62
2022/11/28 04:08:31;;;;;;;;;12.80;12.80;;;;;11.94;73.96;100499.47;2094434;28;46497;-62
2022/11/28 04:09:43;;;;;;;;;11.60;11.60;;;;;11.94;73.76;100498.56;2097192;28;46296;-61
2022/11/28 04:11:07;;;;;;;;;12.20;11.40;;;;;11.93;73.83;100508.34;2097270;28;47033;-63
2022/11/28 04:12:17;;;;;;;;;12.20;12.20;;;;;11.93;73.99;100508.34;2089964;28;46585;-62
2022/11/28 04:13:30;;;;;;;;;11.00;11.00;;;;;11.94;73.99;100504.78;2089693;28;46581;-63
2022/11/28 04:14:36;;;;;;;;;13.40;12.00;;;;;11.95;73.82;100505.66;2095950;28;46562;-62
2022/11/28 04:15:59;;;;;;;;;11.40;10.80;;;;;11.94;73.93;100504.78;2097593;28;46232;-63
2022/11/28 04:17:13;;;;;;;;;12.60;10.60;;;;;11.95;74.05;100503.88;2097272;28;47008;-63
2022/11/28 04:18:29;;;;;;;;;12.60;12.60;;;;;11.97;73.89;100509.13;2096820;28;47013;-61
2022/11/28 04:19:36;;;;;;;;;14.80;12.00;;;;;11.95;73.90;100506.53;2097463;28;47005;-62
2022/11/28 04:20:51;;;;;;;;;15.20;14.00;;;;;11.94;74.08;100510.09;2096989;28;46977;-61
2022/11/28 04:21:57;;;;;;;;;11.00;10.00;;;;;11.94;73.97;100512.75;2092152;28;46631;-61
2022/11/28 04:23:04;;;;;;;;;11.60;10.40;;;;;11.93;74.00;100518.97;2098968;28;46007;-64
2022/11/28 04:24:11;;;;;;;;;12.00;11.40;;;;;11.92;73.99;100522.53;2096916;28;46442;-61
2022/11/28 04:25:15;;;;;;;;;16.80;13.00;;;;;11.94;74.07;100518.09;2097248;28;47058;-63
2022/11/28 04:26:39;;;;;;;;;13.00;12.40;;;;;11.94;74.05;100520.75;2097164;28;46731;-63
2022/11/28 04:27:46;;;;;;;;;11.00;10.60;;;;;11.96;74.05;100512.72;2097354;28;46598;-62
2022/11/28 04:28:48;;;;;;;;;10.20;10.00;;;;;11.95;74.03;100503.88;2097171;28;46924;-61
2022/11/28 04:29:54;;;;;;;;;10.00;10.00;;;;;11.96;74.12;100510.91;2097220;28;46429;-63
2022/11/28 04:30:57;;;;;;;;;12.40;12.40;;;;;11.97;73.85;100504.69;2097085;28;46362;-62
2022/11/28 04:32:00;;;;;;;;;12.20;10.80;;;;;11.97;73.88;100509.13;2097379;28;46566;-63
2022/11/28 04:33:05;;;;;;;;;11.60;11.40;;;;;11.97;74.15;100509.13;2097039;28;46549;-59
2022/11/28 04:34:09;;;;;;;;;13.60;12.40;;;;;11.98;73.89;100517.06;2097429;28;46831;-62
2022/11/28 04:35:18;;;;;;;;;14.60;13.00;;;;;11.97;74.12;100512.66;2089299;28;46798;-62
2022/11/28 04:36:22;;;;;;;;;13.60;13.60;;;;;11.98;74.07;100517.06;2094066;28;46447;-64
2022/11/28 04:37:26;;;;;;;;;15.20;12.00;;;;;12.00;73.95;100519.66;2096997;28;46688;-63
2022/11/28 04:38:30;;;;;;;;;12.60;11.80;;;;;12.00;73.89;100509.03;2097349;28;46682;-62
2022/11/28 04:39:33;;;;;;;;;13.00;13.00;;;;;11.99;73.92;100509.94;2097767;28;45212;-63
2022/11/28 04:40:40;;;;;;;;;11.00;11.00;;;;;12.02;73.97;100515.16;2096939;28;46137;-63
2022/11/28 04:41:47;;;;;;;;;14.80;12.00;;;;;12.03;74.12;100509.78;2096550;28;46448;-63
2022/11/28 04:42:54;;;;;;;;;13.80;13.40;;;;;12.03;73.87;100512.47;2097071;28;46417;-63
2022/11/28 04:44:30;;;;;;;;;15.00;13.25;;;;;12.03;73.95;100511.59;2096230;28;46458;-64
2022/11/28 04:45:38;;;;;;;;;11.80;10.60;;;;;12.02;73.84;100513.38;2070760;28;46831;-63
2022/11/28 04:46:45;;;;;;;;;12.40;11.80;;;;;12.03;74.11;100514.25;2071451;28;46585;-62
2022/11/28 04:47:46;;;;;;;;;14.00;12.20;;;;;12.02;74.12;100516.03;2070937;28;46564;-63
2022/11/28 04:48:46;;;;;;;;;12.60;11.60;;;;;12.02;74.08;100515.16;2071317;28;46835;-63
2022/11/28 04:49:47;;;;;;;;;13.50;13.00;;;;;12.02;74.07;100515.16;2071248;28;46505;-62
2022/11/28 04:51:14;;;;;;;;;12.00;12.00;;;;;12.02;74.03;100521.34;2055345;28;46708;-62
2022/11/28 04:52:22;;;;;;;;;12.60;11.40;;;;;12.03;73.85;100524.88;2057140;28;46618;-64
2022/11/28 04:53:34;;;;;;;;;13.80;13.00;;;;;12.03;74.04;100525.75;2071479;28;45694;-63
2022/11/28 04:54:37;;;;;;;;;10.40;10.40;;;;;12.03;74.05;100525.75;2071418;28;46635;-64
2022/11/28 04:55:44;;;;;;;;;14.20;14.20;;;;;12.02;73.89;100528.47;2070962;28;46763;-62
2022/11/28 04:57:18;;;;;;;;;15.20;14.40;;;;;12.01;73.90;100526.72;2072018;28;47264;-63
2022/11/28 04:58:25;;;;;;;;;12.00;12.00;;;;;12.02;74.05;100525.81;2070064;28;46522;-63
2022/11/28 04:59:27;;;;;;;;;11.60;10.60;;;;;12.01;74.33;100529.38;2071026;28;46676;-63
2022/11/28 05:00:28;;;;;;;;;10.20;10.20;;;;;11.98;74.21;100527.69;2073158;28;46279;-62
2022/11/28 05:01:31;;;;;;;;;13.50;13.00;;;;;11.98;74.22;100529.50;2071538;28;46660;-62
2022/11/28 05:02:33;;;;;;;;;16.20;13.80;;;;;11.98;73.96;100525.03;2062929;28;46407;-63
2022/11/28 05:03:34;;;;;;;;;12.20;11.20;;;;;11.98;74.23;100525.03;2062802;28;46675;-63
2022/11/28 05:04:36;;;;;;;;;13.80;13.20;;;;;11.98;74.28;100530.34;2070942;28;46815;-63
2022/11/28 05:05:49;;;;;;;;;12.40;10.20;;;;;11.97;74.08;100519.78;2054623;28;46258;-63
2022/11/28 05:06:49;;;;;;;;;16.80;12.60;;;;;11.98;74.18;100517.06;2058173;28;46544;-62
2022/11/28 05:07:52;;;;;;;;;12.00;12.00;;;;;12.00;74.25;100517.00;2071250;28;46339;-63
2022/11/28 05:08:53;;;;;;;;;11.60;11.60;;;;;12.00;74.48;100507.25;2070650;28;46377;-62